sensor_id;sensor_type;location;lat;lon;timestamp;pressure;altitude;pressure_sealevel;temperature;humidity
24610;BME280;12758;47.890;11.694;2023-04-06T00:00:41;93969.25;;;2.92;87.64
24610;BME280;12758;47.890;11.694;2023-04-06T00:03:10;93966.56;;;2.92;87.41
24610;BME280;12758;47.890;11.694;2023-04-06T00:05:36;93965.50;;;2.93;87.80
24610;BME280;12758;47.890;11.694;2023-04-06T00:08:05;93961.19;;;2.92;87.37
24610;BME280;12758;47.890;11.694;2023-04-06T00:10:31;93965.25;;;2.89;87.08
24610;BME280;12758;47.890;11.694;2023-04-06T00:13:00;93953.72;;;2.89;87.32
24610;BME280;12758;47.890;11.694;2023-04-06T00:15:27;93948.91;;;2.86;87.37
24610;BME280;12758;47.890;11.694;2023-04-06T00:17:56;93955.91;;;2.82;87.77
24610;BME280;12758;47.890;11.694;2023-04-06T00:20:25;93950.03;;;2.79;87.78
24610;BME280;12758;47.890;11.694;2023-04-06T00:22:54;93951.09;;;2.78;87.48
24610;BME280;12758;47.890;11.694;2023-04-06T00:25:20;93951.38;;;2.77;88.44
24610;BME280;12758;47.890;11.694;2023-04-06T00:27:49;93942.81;;;2.75;88.20
24610;BME280;12758;47.890;11.694;2023-04-06T00:30:18;93948.47;;;2.73;88.33
24610;BME280;12758;47.890;11.694;2023-04-06T00:32:45;93949.50;;;2.72;89.02
24610;BME280;12758;47.890;11.694;2023-04-06T00:35:11;93958.66;;;2.71;88.26
24610;BME280;12758;47.890;11.694;2023-04-06T00:37:40;93957.06;;;2.70;88.40
24610;BME280;12758;47.890;11.694;2023-04-06T00:40:10;93952.25;;;2.67;88.99
24610;BME280;12758;47.890;11.694;2023-04-06T00:42:36;93948.75;;;2.67;88.96
24610;BME280;12758;47.890;11.694;2023-04-06T00:45:02;93950.63;;;2.66;88.54
24610;BME280;12758;47.890;11.694;2023-04-06T00:47:32;93951.72;;;2.65;89.16
24610;BME280;12758;47.890;11.694;2023-04-06T00:50:02;93950.63;;;2.66;89.27
24610;BME280;12758;47.890;11.694;2023-04-06T00:52:28;93950.13;;;2.64;88.84
24610;BME280;12758;47.890;11.694;2023-04-06T00:54:57;93943.66;;;2.65;88.77
24610;BME280;12758;47.890;11.694;2023-04-06T00:57:23;93947.69;;;2.63;88.17
24610;BME280;12758;47.890;11.694;2023-04-06T00:59:52;93943.41;;;2.62;88.84
24610;BME280;12758;47.890;11.694;2023-04-06T01:02:19;93944.50;;;2.61;88.97
24610;BME280;12758;47.890;11.694;2023-04-06T01:04:47;93945.56;;;2.60;88.51
24610;BME280;12758;47.890;11.694;2023-04-06T01:07:14;93952.31;;;2.57;88.72
24610;BME280;12758;47.890;11.694;2023-04-06T01:09:43;93950.69;;;2.56;89.35
24610;BME280;12758;47.890;11.694;2023-04-06T01:12:09;93951.22;;;2.53;89.51
24610;BME280;12758;47.890;11.694;2023-04-06T01:14:38;93944.28;;;2.52;89.36
24610;BME280;12758;47.890;11.694;2023-04-06T01:17:04;93951.78;;;2.50;89.92
24610;BME280;12758;47.890;11.694;2023-04-06T01:19:33;93947.50;;;2.49;89.65
24610;BME280;12758;47.890;11.694;2023-04-06T01:21:59;93956.34;;;2.49;89.88
24610;BME280;12758;47.890;11.694;2023-04-06T01:24:29;93952.56;;;2.50;89.71
24610;BME280;12758;47.890;11.694;2023-04-06T01:26:55;93957.13;;;2.50;89.81
24610;BME280;12758;47.890;11.694;2023-04-06T01:29:24;93948.59;;;2.48;90.13
24610;BME280;12758;47.890;11.694;2023-04-06T01:31:53;93950.72;;;2.46;90.20
24610;BME280;12758;47.890;11.694;2023-04-06T01:34:22;93941.66;;;2.42;90.52
24610;BME280;12758;47.890;11.694;2023-04-06T01:36:48;93946.75;;;2.38;89.17
24610;BME280;12758;47.890;11.694;2023-04-06T01:39:18;93938.97;;;2.42;90.64
24610;BME280;12758;47.890;11.694;2023-04-06T01:41:48;93941.66;;;2.37;91.04
24610;BME280;12758;47.890;11.694;2023-04-06T01:44:16;93937.66;;;2.34;91.12
24610;BME280;12758;47.890;11.694;2023-04-06T01:46:45;93932.56;;;2.32;91.06
24610;BME280;12758;47.890;11.694;2023-04-06T01:49:14;93937.41;;;2.30;91.01
24610;BME280;12758;47.890;11.694;2023-04-06T01:51:43;93929.38;;;2.30;91.22
24610;BME280;12758;47.890;11.694;2023-04-06T01:54:09;93932.84;;;2.31;91.21
24610;BME280;12758;47.890;11.694;2023-04-06T01:56:39;93927.78;;;2.29;91.24
24610;BME280;12758;47.890;11.694;2023-04-06T01:59:06;93924.53;;;2.32;91.06
24610;BME280;12758;47.890;11.694;2023-04-06T02:01:35;93933.66;;;2.26;91.52
24610;BME280;12758;47.890;11.694;2023-04-06T02:04:01;93924.03;;;2.25;91.63
24610;BME280;12758;47.890;11.694;2023-04-06T02:06:30;93933.13;;;2.24;91.60
24610;BME280;12758;47.890;11.694;2023-04-06T02:08:56;93929.94;;;2.22;91.28
24610;BME280;12758;47.890;11.694;2023-04-06T02:11:25;93932.63;;;2.22;91.13
24610;BME280;12758;47.890;11.694;2023-04-06T02:13:51;93926.72;;;2.20;91.91
24610;BME280;12758;47.890;11.694;2023-04-06T02:16:21;93929.97;;;2.17;91.51
24610;BME280;12758;47.890;11.694;2023-04-06T02:18:47;93935.84;;;2.19;91.87
24610;BME280;12758;47.890;11.694;2023-04-06T02:21:16;93926.19;;;2.18;91.69
24610;BME280;12758;47.890;11.694;2023-04-06T02:23:48;93932.34;;;2.24;91.63
24610;BME280;12758;47.890;11.694;2023-04-06T02:26:17;93930.25;;;2.16;91.73
24610;BME280;12758;47.890;11.694;2023-04-06T02:28:43;93926.22;;;2.13;90.95
24610;BME280;12758;47.890;11.694;2023-04-06T02:31:13;93929.16;;;2.12;91.57
24610;BME280;12758;47.890;11.694;2023-04-06T02:33:44;93922.22;;;2.10;91.14
24610;BME280;12758;47.890;11.694;2023-04-06T02:36:10;93926.78;;;2.10;91.46
24610;BME280;12758;47.890;11.694;2023-04-06T02:38:36;93927.84;;;2.09;92.19
24610;BME280;12758;47.890;11.694;2023-04-06T02:41:05;93928.91;;;2.08;91.94
24610;BME280;12758;47.890;11.694;2023-04-06T02:43:34;93927.38;;;1.92;89.92
24610;BME280;12758;47.890;11.694;2023-04-06T02:46:00;93928.41;;;2.01;91.96
24610;BME280;12758;47.890;11.694;2023-04-06T02:48:26;93917.69;;;2.01;91.86
24610;BME280;12758;47.890;11.694;2023-04-06T02:50:56;93923.06;;;2.01;92.20
24610;BME280;12758;47.890;11.694;2023-04-06T02:53:25;93918.78;;;2.00;93.21
24610;BME280;12758;47.890;11.694;2023-04-06T02:55:51;93913.97;;;1.97;93.00
24610;BME280;12758;47.890;11.694;2023-04-06T02:58:20;93921.72;;;1.98;92.23
24610;BME280;12758;47.890;11.694;2023-04-06T03:00:46;93926.81;;;2.00;92.01
24610;BME280;12758;47.890;11.694;2023-04-06T03:03:12;93916.66;;;1.97;92.19
24610;BME280;12758;47.890;11.694;2023-04-06T03:05:38;93925.22;;;1.94;92.79
24610;BME280;12758;47.890;11.694;2023-04-06T03:08:08;93927.09;;;1.93;92.63
24610;BME280;12758;47.890;11.694;2023-04-06T03:10:34;93916.16;;;1.90;92.79
24610;BME280;12758;47.890;11.694;2023-04-06T03:13:03;93924.44;;;1.88;93.60
24610;BME280;12758;47.890;11.694;2023-04-06T03:15:29;93926.84;;;1.90;93.33
24610;BME280;12758;47.890;11.694;2023-04-06T03:17:58;93922.56;;;1.89;93.88
24610;BME280;12758;47.890;11.694;2023-04-06T03:20:24;93925.22;;;1.89;92.90
24610;BME280;12758;47.890;11.694;2023-04-06T03:22:53;93925.22;;;1.89;93.52
24610;BME280;12758;47.890;11.694;2023-04-06T03:25:23;93924.19;;;1.90;92.64
24610;BME280;12758;47.890;11.694;2023-04-06T03:27:52;93925.22;;;1.89;93.67
24610;BME280;12758;47.890;11.694;2023-04-06T03:30:18;93923.63;;;1.88;93.88
24610;BME280;12758;47.890;11.694;2023-04-06T03:32:47;93917.22;;;1.83;93.40
24610;BME280;12758;47.890;11.694;2023-04-06T03:35:16;93925.78;;;1.85;94.14
24610;BME280;12758;47.890;11.694;2023-04-06T03:37:42;93920.16;;;1.82;93.06
24610;BME280;12758;47.890;11.694;2023-04-06T03:40:08;93930.06;;;1.81;93.84
24610;BME280;12758;47.890;11.694;2023-04-06T03:42:38;93926.84;;;1.79;94.12
24610;BME280;12758;47.890;11.694;2023-04-06T03:45:08;93925.25;;;1.78;94.44
24610;BME280;12758;47.890;11.694;2023-04-06T03:47:34;93923.41;;;1.74;94.02
24610;BME280;12758;47.890;11.694;2023-04-06T03:50:00;93930.06;;;1.76;94.16
24610;BME280;12758;47.890;11.694;2023-04-06T03:52:30;93931.69;;;1.72;94.35
24610;BME280;12758;47.890;11.694;2023-04-06T03:54:58;93932.22;;;1.69;94.55
24610;BME280;12758;47.890;11.694;2023-04-06T03:57:24;93937.03;;;1.72;93.84
24610;BME280;12758;47.890;11.694;2023-04-06T03:59:54;93934.66;;;1.71;94.28
24610;BME280;12758;47.890;11.694;2023-04-06T04:02:21;93940.00;;;1.71;93.80
24610;BME280;12758;47.890;11.694;2023-04-06T04:04:49;93940.81;;;1.71;93.77
24610;BME280;12758;47.890;11.694;2023-04-06T04:07:15;93941.59;;;1.72;94.50
24610;BME280;12758;47.890;11.694;2023-04-06T04:09:44;93952.03;;;1.68;94.45
24610;BME280;12758;47.890;11.694;2023-04-06T04:12:10;93944.00;;;1.68;93.94
24610;BME280;12758;47.890;11.694;2023-04-06T04:14:40;93936.00;;;1.68;94.22
24610;BME280;12758;47.890;11.694;2023-04-06T04:17:06;93946.69;;;1.68;94.63
24610;BME280;12758;47.890;11.694;2023-04-06T04:19:35;93953.13;;;1.67;93.76
24610;BME280;12758;47.890;11.694;2023-04-06T04:22:01;93949.38;;;1.68;93.89
24610;BME280;12758;47.890;11.694;2023-04-06T04:24:32;93939.75;;;1.67;94.54
24610;BME280;12758;47.890;11.694;2023-04-06T04:27:02;93949.09;;;1.65;94.24
24610;BME280;12758;47.890;11.694;2023-04-06T04:29:28;93952.56;;;1.65;94.15
24610;BME280;12758;47.890;11.694;2023-04-06T04:31:54;93955.25;;;1.65;93.90
24610;BME280;12758;47.890;11.694;2023-04-06T04:34:24;93957.66;;;1.61;93.44
24610;BME280;12758;47.890;11.694;2023-04-06T04:36:53;93953.13;;;1.62;94.11
24610;BME280;12758;47.890;11.694;2023-04-06T04:39:19;93953.13;;;1.62;94.51
24610;BME280;12758;47.890;11.694;2023-04-06T04:41:45;93952.06;;;1.58;94.63
24610;BME280;12758;47.890;11.694;2023-04-06T04:44:14;93953.13;;;1.62;94.78
24610;BME280;12758;47.890;11.694;2023-04-06T04:46:44;93951.53;;;1.61;94.06
24610;BME280;12758;47.890;11.694;2023-04-06T04:49:10;93955.78;;;1.57;94.73
24610;BME280;12758;47.890;11.694;2023-04-06T04:51:39;93952.06;;;1.58;94.23
24610;BME280;12758;47.890;11.694;2023-04-06T04:54:05;93953.94;;;1.57;93.95
24610;BME280;12758;47.890;11.694;2023-04-06T04:56:34;93959.81;;;1.49;95.35
24610;BME280;12758;47.890;11.694;2023-04-06T04:59:00;93949.41;;;1.48;95.57
24610;BME280;12758;47.890;11.694;2023-04-06T05:01:29;93956.84;;;1.51;96.12
24610;BME280;12758;47.890;11.694;2023-04-06T05:03:55;93948.59;;;1.52;95.02
24610;BME280;12758;47.890;11.694;2023-04-06T05:06:24;93950.97;;;1.54;95.76
24610;BME280;12758;47.890;11.694;2023-04-06T05:08:54;93955.78;;;1.57;95.46
24610;BME280;12758;47.890;11.694;2023-04-06T05:11:23;93952.06;;;1.58;94.76
24610;BME280;12758;47.890;11.694;2023-04-06T05:13:50;93955.78;;;1.57;94.47
24610;BME280;12758;47.890;11.694;2023-04-06T05:16:20;93963.53;;;1.53;95.47
24610;BME280;12758;47.890;11.694;2023-04-06T05:18:49;93946.44;;;1.54;95.55
24610;BME280;12758;47.890;11.694;2023-04-06T05:21:15;93957.94;;;1.55;95.68
24610;BME280;12758;47.890;11.694;2023-04-06T05:23:41;93960.63;;;1.50;96.79
24610;BME280;12758;47.890;11.694;2023-04-06T05:26:11;93955.25;;;1.50;96.50
24610;BME280;12758;47.890;11.694;2023-04-06T05:28:40;93965.16;;;1.54;96.58
24610;BME280;12758;47.890;11.694;2023-04-06T05:31:09;93955.78;;;1.47;96.76
24610;BME280;12758;47.890;11.694;2023-04-06T05:33:35;93963.81;;;1.47;96.19
24610;BME280;12758;47.890;11.694;2023-04-06T05:36:05;93963.53;;;1.38;97.47
24610;BME280;12758;47.890;11.694;2023-04-06T05:38:35;93967.84;;;1.34;98.82
24610;BME280;12758;47.890;11.694;2023-04-06T05:41:01;93965.44;;;1.32;99.39
24610;BME280;12758;47.890;11.694;2023-04-06T05:43:28;93972.94;;;1.35;98.65
24610;BME280;12758;47.890;11.694;2023-04-06T05:45:54;93968.63;;;1.24;100.00
24610;BME280;12758;47.890;11.694;2023-04-06T05:48:23;93968.91;;;1.28;100.00
24610;BME280;12758;47.890;11.694;2023-04-06T05:50:49;93971.56;;;1.17;100.00
24610;BME280;12758;47.890;11.694;2023-04-06T05:53:18;93969.41;;;0.99;100.00
24610;BME280;12758;47.890;11.694;2023-04-06T05:55:44;93971.81;;;0.96;100.00
24610;BME280;12758;47.890;11.694;2023-04-06T05:58:13;93973.44;;;0.97;100.00
24610;BME280;12758;47.890;11.694;2023-04-06T06:00:39;93972.88;;;0.89;100.00
24610;BME280;12758;47.890;11.694;2023-04-06T06:03:09;93966.94;;;0.52;100.00
24610;BME280;12758;47.890;11.694;2023-04-06T06:05:35;93964.78;;;0.54;100.00
24610;BME280;12758;47.890;11.694;2023-04-06T06:08:04;93964.25;;;0.57;100.00
24610;BME280;12758;47.890;11.694;2023-04-06T06:10:30;93963.16;;;0.47;100.00
24610;BME280;12758;47.890;11.694;2023-04-06T06:12:59;93966.06;;;0.41;100.00
24610;BME280;12758;47.890;11.694;2023-04-06T06:15:25;93958.09;;;0.46;100.00
24610;BME280;12758;47.890;11.694;2023-04-06T06:17:55;93969.78;;;0.35;100.00
24610;BME280;12758;47.890;11.694;2023-04-06T06:20:21;93965.28;;;0.40;100.00
24610;BME280;12758;47.890;11.694;2023-04-06T06:22:50;93974.63;;;0.43;100.00
24610;BME280;12758;47.890;11.694;2023-04-06T06:25:16;93967.97;;;0.45;100.00
24610;BME280;12758;47.890;11.694;2023-04-06T06:27:45;93975.72;;;0.47;100.00
24610;BME280;12758;47.890;11.694;2023-04-06T06:30:14;93976.50;;;0.47;100.00
24610;BME280;12758;47.890;11.694;2023-04-06T06:32:43;93974.38;;;0.50;100.00
24610;BME280;12758;47.890;11.694;2023-04-06T06:35:10;93978.91;;;0.44;100.00
24610;BME280;12758;47.890;11.694;2023-04-06T06:37:36;93979.16;;;0.37;100.00
24610;BME280;12758;47.890;11.694;2023-04-06T06:40:08;93971.66;;;0.34;100.00
24610;BME280;12758;47.890;11.694;2023-04-06T06:42:38;93974.84;;;0.31;100.00
24610;BME280;12758;47.890;11.694;2023-04-06T06:45:05;93979.66;;;0.29;100.00
24610;BME280;12758;47.890;11.694;2023-04-06T06:47:34;93971.13;;;0.32;100.00
24610;BME280;12758;47.890;11.694;2023-04-06T06:50:04;93978.63;;;0.40;100.00
24610;BME280;12758;47.890;11.694;2023-04-06T06:52:32;93977.56;;;0.41;100.00
24610;BME280;12758;47.890;11.694;2023-04-06T06:54:58;93988.22;;;0.41;100.00
24610;BME280;12758;47.890;11.694;2023-04-06T06:57:27;93981.84;;;0.47;100.00
24610;BME280;12758;47.890;11.694;2023-04-06T06:59:56;93986.69;;;0.61;100.00
24610;BME280;12758;47.890;11.694;2023-04-06T07:02:22;93993.66;;;0.62;100.00
24610;BME280;12758;47.890;11.694;2023-04-06T07:04:51;93985.63;;;0.57;100.00
24610;BME280;12758;47.890;11.694;2023-04-06T07:07:17;93997.09;;;0.57;100.00
24610;BME280;12758;47.890;11.694;2023-04-06T07:09:47;93994.69;;;0.61;100.00
24610;BME280;12758;47.890;11.694;2023-04-06T07:12:13;93990.44;;;0.60;100.00
24610;BME280;12758;47.890;11.694;2023-04-06T07:14:42;93989.69;;;0.80;100.00
24610;BME280;12758;47.890;11.694;2023-04-06T07:17:08;93994.78;;;0.86;100.00
24610;BME280;12758;47.890;11.694;2023-04-06T07:19:38;93987.84;;;0.96;100.00
24610;BME280;12758;47.890;11.694;2023-04-06T07:22:04;93986.81;;;1.07;100.00
24610;BME280;12758;47.890;11.694;2023-04-06T07:24:32;93994.31;;;1.20;100.00
24610;BME280;12758;47.890;11.694;2023-04-06T07:26:59;93992.19;;;1.22;100.00
24610;BME280;12758;47.890;11.694;2023-04-06T07:29:29;93990.56;;;1.26;100.00
24610;BME280;12758;47.890;11.694;2023-04-06T07:31:58;93985.22;;;1.31;100.00
24610;BME280;12758;47.890;11.694;2023-04-06T07:34:24;93988.41;;;1.44;100.00
24610;BME280;12758;47.890;11.694;2023-04-06T07:36:50;93978.81;;;1.58;100.00
24610;BME280;12758;47.890;11.694;2023-04-06T07:39:21;93985.72;;;1.79;100.00
24610;BME280;12758;47.890;11.694;2023-04-06T07:41:50;93983.28;;;1.98;100.00
24610;BME280;12758;47.890;11.694;2023-04-06T07:44:16;93983.00;;;2.15;100.00
24610;BME280;12758;47.890;11.694;2023-04-06T07:46:42;93980.31;;;2.10;100.00
24610;BME280;12758;47.890;11.694;2023-04-06T07:49:11;93980.31;;;2.10;100.00
24610;BME280;12758;47.890;11.694;2023-04-06T07:51:41;93984.00;;;2.29;100.00
24610;BME280;12758;47.890;11.694;2023-04-06T07:54:07;93977.81;;;2.39;95.67
24610;BME280;12758;47.890;11.694;2023-04-06T07:56:33;93975.97;;;2.35;93.47
24610;BME280;12758;47.890;11.694;2023-04-06T07:58:59;93980.19;;;2.41;92.15
24610;BME280;12758;47.890;11.694;2023-04-06T08:01:29;93975.41;;;2.38;91.89
24610;BME280;12758;47.890;11.694;2023-04-06T08:03:56;93982.31;;;2.49;88.54
24610;BME280;12758;47.890;11.694;2023-04-06T08:06:25;93979.16;;;2.37;90.82
24610;BME280;12758;47.890;11.694;2023-04-06T08:08:51;93972.44;;;2.44;93.33
24610;BME280;12758;47.890;11.694;2023-04-06T08:11:20;93973.78;;;2.42;88.84
24610;BME280;12758;47.890;11.694;2023-04-06T08:13:46;93975.91;;;2.45;90.91
24610;BME280;12758;47.890;11.694;2023-04-06T08:16:15;93976.69;;;2.50;92.85
24610;BME280;12758;47.890;11.694;2023-04-06T08:18:42;93980.72;;;2.48;92.42
24610;BME280;12758;47.890;11.694;2023-04-06T08:21:11;93975.38;;;2.48;89.97
24610;BME280;12758;47.890;11.694;2023-04-06T08:23:40;93975.88;;;2.55;87.79
24610;BME280;12758;47.890;11.694;2023-04-06T08:26:09;93978.81;;;2.53;91.03
24610;BME280;12758;47.890;11.694;2023-04-06T08:28:35;93976.97;;;2.49;89.62
24610;BME280;12758;47.890;11.694;2023-04-06T08:31:05;93982.88;;;2.46;92.81
24610;BME280;12758;47.890;11.694;2023-04-06T08:33:34;93977.47;;;2.56;94.30
24610;BME280;12758;47.890;11.694;2023-04-06T08:36:13;93977.22;;;2.52;94.29
24610;BME280;12758;47.890;11.694;2023-04-06T08:38:39;93972.66;;;2.53;92.27
24610;BME280;12758;47.890;11.694;2023-04-06T08:41:08;93979.09;;;2.47;93.62
24610;BME280;12758;47.890;11.694;2023-04-06T08:43:42;93974.81;;;2.51;94.72
24610;BME280;12758;47.890;11.694;2023-04-06T08:46:08;93980.50;;;2.94;88.63
24610;BME280;12758;47.890;11.694;2023-04-06T08:48:38;93981.22;;;3.10;94.46
24610;BME280;12758;47.890;11.694;2023-04-06T08:51:08;93973.78;;;3.36;90.57
24610;BME280;12758;47.890;11.694;2023-04-06T08:53:38;93970.66;;;3.23;89.17
24610;BME280;12758;47.890;11.694;2023-04-06T08:56:05;93979.00;;;3.17;85.82
24610;BME280;12758;47.890;11.694;2023-04-06T08:58:34;93978.91;;;2.93;88.66
24610;BME280;12758;47.890;11.694;2023-04-06T09:01:00;93975.16;;;2.89;89.99
24610;BME280;12758;47.890;11.694;2023-04-06T09:03:29;93974.00;;;3.05;87.27
24610;BME280;12758;47.890;11.694;2023-04-06T09:05:56;93970.25;;;3.01;87.52
24610;BME280;12758;47.890;11.694;2023-04-06T09:08:22;93970.56;;;2.94;88.84
24610;BME280;12758;47.890;11.694;2023-04-06T09:10:49;93964.31;;;3.09;89.55
24610;BME280;12758;47.890;11.694;2023-04-06T09:13:20;93973.47;;;3.03;88.91
24610;BME280;12758;47.890;11.694;2023-04-06T09:15:46;93968.66;;;3.05;88.30
24610;BME280;12758;47.890;11.694;2023-04-06T09:18:27;93971.53;;;3.48;81.34
24610;BME280;12758;47.890;11.694;2023-04-06T09:20:57;93967.53;;;3.45;80.80
24610;BME280;12758;47.890;11.694;2023-04-06T09:23:26;93966.66;;;3.84;81.48
24610;BME280;12758;47.890;11.694;2023-04-06T09:26:03;93975.22;;;4.15;76.80
24610;BME280;12758;47.890;11.694;2023-04-06T09:28:44;93963.47;;;4.11;71.83
24610;BME280;12758;47.890;11.694;2023-04-06T09:31:11;93972.94;;;4.28;74.80
24610;BME280;12758;47.890;11.694;2023-04-06T09:33:41;93974.03;;;3.73;81.31
24610;BME280;12758;47.890;11.694;2023-04-06T09:36:10;93978.97;;;4.86;73.85
24610;BME280;12758;47.890;11.694;2023-04-06T09:38:51;93985.13;;;5.63;63.07
24610;BME280;12758;47.890;11.694;2023-04-06T09:41:22;93971.19;;;4.85;56.33
24610;BME280;12758;47.890;11.694;2023-04-06T09:43:51;93959.78;;;4.50;60.43
24610;BME280;12758;47.890;11.694;2023-04-06T09:46:21;93955.28;;;4.88;61.88
24610;BME280;12758;47.890;11.694;2023-04-06T09:48:47;93970.00;;;5.99;62.13
24610;BME280;12758;47.890;11.694;2023-04-06T09:51:16;93974.59;;;5.80;60.22
24610;BME280;12758;47.890;11.694;2023-04-06T09:53:50;93974.91;;;5.46;62.38
24610;BME280;12758;47.890;11.694;2023-04-06T09:56:24;93963.94;;;5.04;68.30
24610;BME280;12758;47.890;11.694;2023-04-06T09:58:54;93966.53;;;5.47;64.71
24610;BME280;12758;47.890;11.694;2023-04-06T10:01:22;93960.56;;;5.50;58.66
24610;BME280;12758;47.890;11.694;2023-04-06T10:04:00;93958.31;;;5.20;65.11
24610;BME280;12758;47.890;11.694;2023-04-06T10:06:30;93955.13;;;5.36;64.46
24610;BME280;12758;47.890;11.694;2023-04-06T10:08:58;93950.97;;;4.87;66.14
24610;BME280;12758;47.890;11.694;2023-04-06T10:11:25;93958.47;;;6.26;58.75
24610;BME280;12758;47.890;11.694;2023-04-06T10:13:55;93948.81;;;6.39;57.42
24610;BME280;12758;47.890;11.694;2023-04-06T10:16:24;93956.25;;;6.15;55.25
24610;BME280;12758;47.890;11.694;2023-04-06T10:18:54;93959.53;;;6.12;54.51
24610;BME280;12758;47.890;11.694;2023-04-06T10:21:24;93961.31;;;6.02;53.35
24610;BME280;12758;47.890;11.694;2023-04-06T10:23:58;93964.53;;;6.04;51.98
24610;BME280;12758;47.890;11.694;2023-04-06T10:26:28;93962.44;;;6.01;53.86
24610;BME280;12758;47.890;11.694;2023-04-06T10:28:54;93963.03;;;5.98;51.37
24610;BME280;12758;47.890;11.694;2023-04-06T10:31:24;93954.34;;;6.15;56.57
24610;BME280;12758;47.890;11.694;2023-04-06T10:33:54;93956.66;;;6.08;53.84
24610;BME280;12758;47.890;11.694;2023-04-06T10:36:25;93954.66;;;6.14;53.09
24610;BME280;12758;47.890;11.694;2023-04-06T10:38:56;93948.38;;;6.04;50.57
24610;BME280;12758;47.890;11.694;2023-04-06T10:41:23;93952.13;;;6.03;55.63
24610;BME280;12758;47.890;11.694;2023-04-06T10:43:56;93949.25;;;5.81;55.56
24610;BME280;12758;47.890;11.694;2023-04-06T10:46:26;93943.25;;;6.03;52.30
24610;BME280;12758;47.890;11.694;2023-04-06T10:48:52;93940.47;;;5.94;53.25
24610;BME280;12758;47.890;11.694;2023-04-06T10:51:19;93954.38;;;6.43;54.01
24610;BME280;12758;47.890;11.694;2023-04-06T10:53:46;93951.38;;;6.44;53.44
24610;BME280;12758;47.890;11.694;2023-04-06T10:56:17;93945.19;;;6.30;51.07
24610;BME280;12758;47.890;11.694;2023-04-06T10:58:44;93945.47;;;6.15;51.72
24610;BME280;12758;47.890;11.694;2023-04-06T11:01:12;93937.00;;;6.07;50.02
24610;BME280;12758;47.890;11.694;2023-04-06T11:03:42;93935.53;;;7.07;50.98
24610;BME280;12758;47.890;11.694;2023-04-06T11:06:18;93928.63;;;6.23;53.32
24610;BME280;12758;47.890;11.694;2023-04-06T11:08:44;93928.44;;;6.33;50.43
24610;BME280;12758;47.890;11.694;2023-04-06T11:11:12;93929.22;;;6.47;49.03
24610;BME280;12758;47.890;11.694;2023-04-06T11:13:41;93929.22;;;6.47;48.71
24610;BME280;12758;47.890;11.694;2023-04-06T11:16:15;93929.19;;;6.61;48.65
24610;BME280;12758;47.890;11.694;2023-04-06T11:18:52;93916.00;;;6.87;48.88
24610;BME280;12758;47.890;11.694;2023-04-06T11:21:32;93921.25;;;6.92;51.46
24610;BME280;12758;47.890;11.694;2023-04-06T11:24:08;93919.84;;;6.59;49.21
24610;BME280;12758;47.890;11.694;2023-04-06T11:26:42;93919.44;;;6.65;48.98
24610;BME280;12758;47.890;11.694;2023-04-06T11:29:12;93919.63;;;6.69;55.52
24610;BME280;12758;47.890;11.694;2023-04-06T11:31:44;93922.44;;;7.36;49.64
24610;BME280;12758;47.890;11.694;2023-04-06T11:34:12;93906.31;;;7.22;44.97
24610;BME280;12758;47.890;11.694;2023-04-06T11:36:42;93907.44;;;7.08;50.73
24610;BME280;12758;47.890;11.694;2023-04-06T11:39:11;93902.56;;;7.10;46.63
24610;BME280;12758;47.890;11.694;2023-04-06T11:41:40;93911.88;;;7.26;47.94
24610;BME280;12758;47.890;11.694;2023-04-06T11:44:06;93908.59;;;7.52;48.49
24610;BME280;12758;47.890;11.694;2023-04-06T11:46:35;93898.66;;;7.38;47.73
24610;BME280;12758;47.890;11.694;2023-04-06T11:49:02;93898.78;;;6.97;47.97
24610;BME280;12758;47.890;11.694;2023-04-06T11:51:28;93912.50;;;7.23;49.56
24610;BME280;12758;47.890;11.694;2023-04-06T11:53:55;93904.31;;;7.14;47.99
24610;BME280;12758;47.890;11.694;2023-04-06T11:56:25;93909.34;;;7.07;50.43
24610;BME280;12758;47.890;11.694;2023-04-06T11:58:55;93901.53;;;7.06;49.17
24610;BME280;12758;47.890;11.694;2023-04-06T12:01:22;93895.44;;;7.36;48.96
24610;BME280;12758;47.890;11.694;2023-04-06T12:03:48;93896.16;;;7.51;47.58
24610;BME280;12758;47.890;11.694;2023-04-06T12:06:18;93886.66;;;7.08;46.09
24610;BME280;12758;47.890;11.694;2023-04-06T12:08:47;93892.72;;;7.14;46.74
24610;BME280;12758;47.890;11.694;2023-04-06T12:11:13;93892.50;;;7.24;46.36
24610;BME280;12758;47.890;11.694;2023-04-06T12:13:39;93888.38;;;7.49;47.21
24610;BME280;12758;47.890;11.694;2023-04-06T12:16:08;93891.56;;;7.51;47.87
24610;BME280;12758;47.890;11.694;2023-04-06T12:18:37;93888.44;;;7.58;45.51
24610;BME280;12758;47.890;11.694;2023-04-06T12:21:04;93889.00;;;7.46;45.96
24610;BME280;12758;47.890;11.694;2023-04-06T12:23:31;93883.47;;;7.29;45.59
24610;BME280;12758;47.890;11.694;2023-04-06T12:26:00;93879.53;;;7.12;46.50
24610;BME280;12758;47.890;11.694;2023-04-06T12:28:30;93883.75;;;7.05;48.59
24610;BME280;12758;47.890;11.694;2023-04-06T12:30:56;93877.88;;;7.25;46.21
24610;BME280;12758;47.890;11.694;2023-04-06T12:33:22;93875.88;;;7.31;45.18
24610;BME280;12758;47.890;11.694;2023-04-06T12:35:48;93875.69;;;7.50;46.04
24610;BME280;12758;47.890;11.694;2023-04-06T12:38:17;93873.09;;;7.44;45.20
24610;BME280;12758;47.890;11.694;2023-04-06T12:40:44;93869.25;;;7.37;44.00
24610;BME280;12758;47.890;11.694;2023-04-06T12:43:13;93865.81;;;7.22;45.66
24610;BME280;12758;47.890;11.694;2023-04-06T12:45:39;93858.97;;;7.47;43.95
24610;BME280;12758;47.890;11.694;2023-04-06T12:48:08;93855.38;;;7.83;44.36
24610;BME280;12758;47.890;11.694;2023-04-06T12:50:37;93860.16;;;7.55;44.52
24610;BME280;12758;47.890;11.694;2023-04-06T12:53:06;93857.94;;;7.12;45.67
24610;BME280;12758;47.890;11.694;2023-04-06T12:55:32;93856.06;;;7.35;45.48
24610;BME280;12758;47.890;11.694;2023-04-06T12:58:03;93859.72;;;7.62;46.00
24610;BME280;12758;47.890;11.694;2023-04-06T13:00:29;93860.84;;;7.69;43.82
24610;BME280;12758;47.890;11.694;2023-04-06T13:02:56;93854.66;;;7.69;44.64